Time;durP1;ratioP1;P1;durP2;ratioP2;P2;SDS_P1;SDS_P2;PMS_P1;PMS_P2;Temp;Humidity;BMP_temperature;BMP_pressure;BME280_temperature;BME280_humidity;BME280_pressure;Samples;Min_cycle;Max_cycle;Signal;HPM_P1;HPM_P2
2021/01/24 00:02:10;;;;;;;7.73;3.57;;;1.40;99.90;;;;;;4966218;28;20041;-87
2021/01/24 00:04:39;;;;;;;6.07;3.30;;;1.40;99.90;;;;;;4954183;28;20050;-87
2021/01/24 00:07:06;;;;;;;6.97;3.90;;;1.40;99.90;;;;;;4963196;28;20046;-87
2021/01/24 00:09:32;;;;;;;5.97;3.27;;;1.40;99.90;;;;;;4958812;28;20476;-87
2021/01/24 00:11:58;;;;;;;6.00;3.27;;;1.30;99.90;;;;;;4964245;28;20023;-87
2021/01/24 00:14:24;;;;;;;6.43;3.40;;;1.30;99.90;;;;;;4971919;28;20042;-87
2021/01/24 00:16:50;;;;;;;5.37;2.50;;;1.40;99.90;;;;;;4960317;28;20039;-87
2021/01/24 00:19:19;;;;;;;4.53;2.60;;;1.40;99.90;;;;;;4958781;28;20062;-87
2021/01/24 00:21:46;;;;;;;4.83;2.50;;;1.40;99.90;;;;;;4957728;28;20089;-87
2021/01/24 00:24:11;;;;;;;4.80;2.63;;;1.40;99.90;;;;;;4975050;28;20126;-87
2021/01/24 00:26:37;;;;;;;7.93;2.83;;;1.40;99.90;;;;;;4961377;28;20058;-87
2021/01/24 00:29:03;;;;;;;5.50;2.40;;;1.40;99.90;;;;;;4957737;28;20117;-87
2021/01/24 00:31:30;;;;;;;5.23;2.70;;;1.40;99.90;;;;;;4959496;28;20049;-90
2021/01/24 00:33:55;;;;;;;4.63;2.33;;;1.40;99.90;;;;;;4964827;28;20034;-86
2021/01/24 00:36:21;;;;;;;4.27;2.53;;;1.40;99.90;;;;;;4972442;28;20476;-88
2021/01/24 00:38:48;;;;;;;4.23;2.07;;;1.40;99.90;;;;;;4966790;28;20031;-87
2021/01/24 00:41:14;;;;;;;4.53;2.63;;;1.40;99.90;;;;;;4961007;28;20429;-87
2021/01/24 00:43:40;;;;;;;5.40;2.27;;;1.40;99.90;;;;;;4957955;28;20038;-87
2021/01/24 00:46:07;;;;;;;4.80;2.40;;;1.40;99.90;;;;;;4960433;28;20030;-87
2021/01/24 00:48:37;;;;;;;4.57;2.50;;;1.40;99.90;;;;;;4966691;28;20027;-88
2021/01/24 00:51:04;;;;;;;4.50;2.23;;;1.40;99.90;;;;;;4953734;29;20114;-87
2021/01/24 00:53:30;;;;;;;3.90;2.10;;;1.50;99.90;;;;;;4955019;28;20129;-87
2021/01/24 00:55:56;;;;;;;3.93;2.03;;;1.50;99.90;;;;;;4956308;28;20552;-87
2021/01/24 00:58:23;;;;;;;4.10;2.43;;;1.50;99.90;;;;;;4960608;28;20039;-88
2021/01/24 01:00:49;;;;;;;4.33;2.80;;;1.40;99.90;;;;;;4955699;28;20122;-88
2021/01/24 01:03:15;;;;;;;4.47;2.53;;;1.40;99.90;;;;;;4956325;28;20141;-88
2021/01/24 01:05:40;;;;;;;4.07;2.20;;;1.50;99.90;;;;;;4956277;28;20535;-88
2021/01/24 01:08:07;;;;;;;4.60;2.43;;;1.50;99.90;;;;;;4960415;28;20019;-88
2021/01/24 01:10:36;;;;;;;4.07;2.33;;;1.40;99.90;;;;;;4961288;28;20475;-87
2021/01/24 01:13:02;;;;;;;4.30;2.50;;;1.40;99.90;;;;;;4968114;28;20037;-88
2021/01/24 01:15:28;;;;;;;4.50;2.50;;;1.50;99.90;;;;;;4965078;28;20391;-87
2021/01/24 01:17:53;;;;;;;4.00;2.60;;;1.40;99.90;;;;;;4956467;28;20097;-87
2021/01/24 01:20:19;;;;;;;4.03;2.40;;;1.40;99.90;;;;;;4957297;28;20377;-87
2021/01/24 01:22:46;;;;;;;4.10;2.57;;;1.40;99.90;;;;;;4959605;28;20043;-87
2021/01/24 01:25:11;;;;;;;4.17;2.47;;;1.40;99.90;;;;;;4957697;28;20026;-87
2021/01/24 01:27:38;;;;;;;4.07;2.30;;;1.40;99.90;;;;;;4959790;28;20082;-88
2021/01/24 01:30:05;;;;;;;4.83;2.50;;;1.40;99.90;;;;;;4954839;28;20476;-87
2021/01/24 01:32:31;;;;;;;4.00;2.60;;;1.40;99.90;;;;;;4961290;28;20038;-88
2021/01/24 01:34:58;;;;;;;3.80;2.30;;;1.40;99.90;;;;;;4956801;28;20031;-87
2021/01/24 01:37:24;;;;;;;4.27;2.33;;;1.40;99.90;;;;;;4957428;28;20162;-87
2021/01/24 01:39:49;;;;;;;3.77;2.00;;;1.50;99.90;;;;;;4956708;28;20500;-87
2021/01/24 01:42:16;;;;;;;3.60;2.07;;;1.40;99.90;;;;;;4961524;28;20488;-86
2021/01/24 01:44:42;;;;;;;4.50;2.20;;;1.40;99.90;;;;;;4958952;28;20035;-87
2021/01/24 01:47:16;;;;;;;4.07;2.20;;;1.40;99.90;;;;;;4956758;28;20053;-87
2021/01/24 01:49:42;;;;;;;3.83;2.17;;;1.40;99.90;;;;;;4956052;28;20019;-86
2021/01/24 01:52:08;;;;;;;4.00;2.20;;;1.40;99.90;;;;;;4946255;28;20045;-88
2021/01/24 01:54:33;;;;;;;4.33;2.27;;;1.40;99.90;;;;;;4957310;28;20031;-87
2021/01/24 01:57:00;;;;;;;4.10;2.00;;;1.40;99.90;;;;;;4953307;28;20061;-87
2021/01/24 01:59:26;;;;;;;3.23;1.83;;;1.40;99.90;;;;;;4972219;28;20031;-89
2021/01/24 02:02:30;;;;;;;3.10;1.60;;;1.40;99.90;;;;;;4975423;28;20069;-87
2021/01/24 02:05:14;;;;;;;4.17;1.97;;;1.40;99.90;;;;;;4960758;28;20109;-87
2021/01/24 02:07:53;;;;;;;3.70;1.90;;;1.40;99.90;;;;;;4956079;28;20492;-88
2021/01/24 02:10:40;;;;;;;2.17;1.13;;;1.50;99.90;;;;;;4955268;28;20036;-87
2021/01/24 02:13:15;;;;;;;1.97;0.90;;;1.40;99.90;;;;;;4952467;28;20392;-87
2021/01/24 02:15:44;;;;;;;3.07;1.57;;;1.40;99.90;;;;;;4956889;28;20029;-88
2021/01/24 02:18:11;;;;;;;3.50;1.33;;;1.50;99.90;;;;;;4964359;28;20038;-87
2021/01/24 02:20:45;;;;;;;2.63;1.00;;;1.40;99.90;;;;;;4957597;28;20110;-87
2021/01/24 02:23:12;;;;;;;3.80;1.20;;;1.40;99.90;;;;;;4959600;28;20027;-86
2021/01/24 02:25:56;;;;;;;1.37;0.77;;;1.30;99.90;;;;;;4966779;28;20121;-87
2021/01/24 02:28:43;;;;;;;0.90;0.40;;;1.30;99.90;;;;;;4971648;28;20019;-87
2021/01/24 02:31:10;;;;;;;1.07;0.50;;;1.30;99.90;;;;;;4971119;28;20027;-87
2021/01/24 02:33:38;;;;;;;0.47;0.30;;;1.30;99.90;;;;;;4956331;28;20034;-89
2021/01/24 02:36:07;;;;;;;1.70;0.30;;;1.40;99.90;;;;;;4960470;28;20113;-87
2021/01/24 02:38:34;;;;;;;2.40;0.30;;;1.40;99.90;;;;;;4970667;28;20028;-86
2021/01/24 02:41:00;;;;;;;0.87;0.20;;;1.50;99.90;;;;;;4952451;28;20026;-88
2021/01/24 02:43:27;;;;;;;0.97;0.30;;;1.50;99.90;;;;;;4972908;28;20558;-90
2021/01/24 02:45:55;;;;;;;0.50;0.20;;;1.50;99.90;;;;;;4962824;28;20482;-87
2021/01/24 02:48:22;;;;;;;0.30;0.20;;;1.50;99.90;;;;;;4959400;28;20476;-88
2021/01/24 02:50:49;;;;;;;0.30;0.10;;;1.50;99.90;;;;;;4968941;28;20109;-87
2021/01/24 02:53:16;;;;;;;0.30;0.20;;;1.60;99.90;;;;;;4976274;28;20125;-89
2021/01/24 02:55:43;;;;;;;0.40;0.20;;;1.60;99.90;;;;;;4958856;28;20026;-88
2021/01/24 02:58:09;;;;;;;0.30;0.20;;;1.60;99.90;;;;;;4953384;28;20484;-89
2021/01/24 03:00:34;;;;;;;0.63;0.27;;;1.60;99.90;;;;;;4959884;28;20033;-88
2021/01/24 03:03:00;;;;;;;1.23;0.47;;;1.60;99.90;;;;;;4954902;28;20166;-87
2021/01/24 03:05:27;;;;;;;0.67;0.30;;;1.50;99.90;;;;;;4963833;28;20134;-87
2021/01/24 03:07:53;;;;;;;1.20;0.40;;;1.50;99.90;;;;;;4949543;28;20021;-87
2021/01/24 03:10:20;;;;;;;0.80;0.40;;;1.50;99.90;;;;;;4955840;28;20548;-87
2021/01/24 03:13:23;;;;;;;1.70;0.50;;;1.50;99.90;;;;;;4954579;28;20031;-88
2021/01/24 03:15:51;;;;;;;1.83;0.60;;;1.40;99.90;;;;;;4958128;28;20054;-87
2021/01/24 03:18:20;;;;;;;1.53;0.70;;;1.40;99.90;;;;;;4958126;28;20034;-88
2021/01/24 03:20:49;;;;;;;2.13;0.87;;;1.40;99.90;;;;;;4953671;28;20031;-88
2021/01/24 03:23:19;;;;;;;1.70;0.80;;;1.40;99.90;;;;;;4961943;28;20515;-87
2021/01/24 03:25:46;;;;;;;1.83;0.90;;;1.40;99.90;;;;;;4961738;28;20052;-88
2021/01/24 03:28:12;;;;;;;2.03;0.90;;;1.40;99.90;;;;;;4963547;28;20027;-87
2021/01/24 03:30:38;;;;;;;2.30;1.00;;;1.30;99.90;;;;;;4963398;28;20018;-87
2021/01/24 03:33:05;;;;;;;2.53;0.97;;;1.30;99.90;;;;;;4959351;28;20483;-87
2021/01/24 03:35:30;;;;;;;3.43;1.23;;;1.30;99.90;;;;;;4967508;28;20031;-88
2021/01/24 03:37:56;;;;;;;2.60;1.37;;;1.20;99.90;;;;;;4953162;28;20048;-88
2021/01/24 03:40:22;;;;;;;2.73;1.23;;;1.20;99.90;;;;;;4968297;28;20500;-88
2021/01/24 03:42:48;;;;;;;2.83;1.20;;;1.10;99.90;;;;;;4948723;28;20031;-88
2021/01/24 03:45:14;;;;;;;2.27;1.10;;;1.20;99.90;;;;;;4969967;28;20073;-88
2021/01/24 03:47:40;;;;;;;2.97;1.30;;;1.00;99.90;;;;;;4958448;28;20027;-88
2021/01/24 03:50:07;;;;;;;3.73;1.70;;;1.00;99.90;;;;;;4961786;28;20050;-87
2021/01/24 03:52:32;;;;;;;3.50;1.50;;;1.00;99.90;;;;;;4952052;28;20082;-87
2021/01/24 03:54:58;;;;;;;3.53;1.80;;;1.00;99.90;;;;;;4948750;28;20031;-87
2021/01/24 03:57:25;;;;;;;3.73;1.60;;;1.00;99.90;;;;;;4960927;28;20031;-89
2021/01/24 03:59:53;;;;;;;2.83;1.27;;;1.00;99.90;;;;;;4951514;28;20027;-88
2021/01/24 04:02:19;;;;;;;3.07;1.53;;;1.00;99.90;;;;;;4971699;28;20031;-88
2021/01/24 04:04:45;;;;;;;3.17;1.53;;;0.90;99.90;;;;;;4955896;28;20029;-87
2021/01/24 04:07:11;;;;;;;3.23;1.70;;;0.90;99.90;;;;;;4946871;28;20054;-88
2021/01/24 04:09:36;;;;;;;3.77;1.80;;;0.90;99.90;;;;;;4957246;28;20481;-88
2021/01/24 04:12:02;;;;;;;3.83;1.60;;;0.90;99.90;;;;;;4952107;28;20026;-87
2021/01/24 04:14:28;;;;;;;3.40;1.67;;;0.90;99.90;;;;;;4971442;28;20058;-87
2021/01/24 04:16:56;;;;;;;3.63;1.80;;;0.90;99.90;;;;;;4968126;28;20034;-87
2021/01/24 04:19:22;;;;;;;4.10;1.87;;;0.90;99.90;;;;;;4964042;28;20034;-87
2021/01/24 04:21:48;;;;;;;4.33;2.10;;;0.90;99.90;;;;;;4961369;28;20026;-87
2021/01/24 04:24:13;;;;;;;3.80;1.73;;;0.90;99.90;;;;;;4962071;28;20527;-87
2021/01/24 04:26:39;;;;;;;3.77;1.70;;;0.90;99.90;;;;;;4962785;28;20047;-87
2021/01/24 04:29:04;;;;;;;3.83;1.90;;;1.00;99.90;;;;;;4956883;28;20026;-87
2021/01/24 04:31:30;;;;;;;2.97;1.40;;;0.90;99.90;;;;;;4969347;28;20034;-86
2021/01/24 04:33:57;;;;;;;3.93;1.70;;;0.80;99.90;;;;;;4956539;28;20408;-87
2021/01/24 04:36:22;;;;;;;4.47;1.90;;;0.80;99.90;;;;;;4974316;28;20022;-87
2021/01/24 04:38:48;;;;;;;3.60;1.80;;;0.70;99.90;;;;;;4956683;28;20529;-87
2021/01/24 04:41:15;;;;;;;3.70;1.87;;;0.70;99.90;;;;;;4956479;28;20027;-87
2021/01/24 04:43:41;;;;;;;4.50;1.80;;;0.60;99.90;;;;;;4959854;28;20031;-87
2021/01/24 04:46:08;;;;;;;5.33;2.03;;;0.60;99.90;;;;;;4956846;28;20093;-86
2021/01/24 04:48:34;;;;;;;3.30;1.30;;;0.50;99.90;;;;;;4955649;28;20114;-87
2021/01/24 04:51:00;;;;;;;4.10;1.60;;;0.50;99.90;;;;;;4948997;28;20118;-87
2021/01/24 04:53:27;;;;;;;3.60;1.60;;;0.50;99.90;;;;;;4963373;28;20457;-87
2021/01/24 04:55:53;;;;;;;5.43;1.70;;;0.50;99.90;;;;;;4958730;28;20031;-87
2021/01/24 04:58:19;;;;;;;5.70;1.70;;;0.50;99.90;;;;;;4959869;28;20126;-87
2021/01/24 05:00:46;;;;;;;4.33;1.57;;;0.60;99.90;;;;;;4953567;28;20113;-87
2021/01/24 05:03:12;;;;;;;4.17;1.40;;;0.50;99.90;;;;;;4950356;28;20081;-87
2021/01/24 05:05:38;;;;;;;3.00;1.20;;;0.50;99.90;;;;;;4960063;28;20037;-87
2021/01/24 05:08:08;;;;;;;4.70;1.73;;;0.50;99.90;;;;;;4961621;28;20046;-87
2021/01/24 05:10:34;;;;;;;4.27;1.60;;;0.40;99.90;;;;;;4947966;28;20089;-86
2021/01/24 05:13:04;;;;;;;4.37;1.90;;;0.40;99.90;;;;;;4971014;28;20121;-87
2021/01/24 05:15:31;;;;;;;4.10;1.83;;;0.40;99.90;;;;;;4949783;28;20030;-86
2021/01/24 05:18:02;;;;;;;5.03;1.60;;;0.40;99.90;;;;;;4959273;28;20033;-87
2021/01/24 05:20:29;;;;;;;5.50;2.17;;;0.30;99.90;;;;;;4955723;28;20022;-87
2021/01/24 05:22:56;;;;;;;5.33;1.80;;;0.40;99.90;;;;;;4956449;28;20031;-87
2021/01/24 05:25:27;;;;;;;4.67;1.73;;;0.30;99.90;;;;;;4961391;28;22127;-86
2021/01/24 05:27:52;;;;;;;4.53;1.83;;;0.30;99.90;;;;;;4956146;28;20126;-86
2021/01/24 05:30:32;;;;;;;5.53;1.90;;;0.20;99.90;;;;;;4955570;28;20106;-86
2021/01/24 05:33:01;;;;;;;5.93;1.70;;;0.20;99.90;;;;;;4948938;28;20022;-86
2021/01/24 05:35:27;;;;;;;4.60;2.03;;;0.10;99.90;;;;;;4957713;28;20033;-88
2021/01/24 05:37:53;;;;;;;3.57;1.57;;;0.10;99.90;;;;;;4943704;28;20031;-87
2021/01/24 05:40:19;;;;;;;5.90;2.30;;;0.10;99.90;;;;;;4972591;28;20164;-86
2021/01/24 05:42:45;;;;;;;5.73;2.40;;;0.10;99.90;;;;;;4955000;28;20121;-86
2021/01/24 05:45:16;;;;;;;5.77;2.30;;;0.10;99.90;;;;;;4954865;28;20038;-87
2021/01/24 05:47:43;;;;;;;3.67;2.03;;;0.00;99.90;;;;;;4954556;28;20019;-88
2021/01/24 05:50:13;;;;;;;5.13;1.90;;;0.00;99.90;;;;;;4955141;28;20472;-89
2021/01/24 05:52:40;;;;;;;4.10;2.00;;;0.00;99.90;;;;;;4956035;28;20030;-87
2021/01/24 05:55:08;;;;;;;6.27;2.63;;;0.00;99.90;;;;;;4953128;28;20023;-87
2021/01/24 05:57:36;;;;;;;5.43;1.80;;;-0.10;99.90;;;;;;4958689;28;20026;-86
2021/01/24 06:00:04;;;;;;;5.13;2.10;;;-0.20;99.90;;;;;;4954427;28;20038;-87
2021/01/24 06:02:30;;;;;;;4.33;1.83;;;-0.20;99.90;;;;;;4960497;28;20034;-87
2021/01/24 06:04:56;;;;;;;5.53;2.20;;;-0.20;99.90;;;;;;4956766;28;20031;-87
2021/01/24 06:07:22;;;;;;;5.50;2.27;;;-0.20;99.90;;;;;;4953985;28;20503;-86
2021/01/24 06:09:48;;;;;;;5.57;2.57;;;-0.10;99.90;;;;;;4964334;28;20027;-87
2021/01/24 06:12:17;;;;;;;4.47;2.53;;;-0.10;99.90;;;;;;4954786;28;20054;-87
2021/01/24 06:14:49;;;;;;;6.40;2.60;;;-0.20;99.90;;;;;;4971613;28;20038;-87
2021/01/24 06:17:37;;;;;;;6.10;2.70;;;-0.20;99.90;;;;;;4954242;28;20484;-86
2021/01/24 06:20:05;;;;;;;5.60;2.70;;;-0.20;99.90;;;;;;4965995;28;20061;-87
2021/01/24 06:22:45;;;;;;;5.83;2.37;;;-0.20;99.90;;;;;;4954215;28;20500;-87
2021/01/24 06:25:28;;;;;;;4.83;2.40;;;-0.20;99.90;;;;;;4960723;28;20081;-87
2021/01/24 06:28:04;;;;;;;7.18;2.92;;;-0.20;99.90;;;;;;4955518;28;20125;-87
2021/01/24 06:30:30;;;;;;;6.67;2.23;;;-0.20;99.90;;;;;;4955689;28;20027;-87
2021/01/24 06:33:10;;;;;;;6.07;3.00;;;-0.30;99.90;;;;;;4956741;28;20034;-88
2021/01/24 06:35:44;;;;;;;6.57;2.53;;;-0.20;99.90;;;;;;4963012;28;20023;-87
2021/01/24 06:38:09;;;;;;;5.53;2.50;;;-0.30;99.90;;;;;;4961372;28;20045;-87
2021/01/24 06:40:42;;;;;;;6.40;2.87;;;-0.30;99.90;;;;;;4954221;28;20126;-87
2021/01/24 06:43:09;;;;;;;7.53;3.13;;;-0.30;99.90;;;;;;4951123;28;20775;-87
2021/01/24 06:45:36;;;;;;;6.67;2.80;;;-0.20;99.90;;;;;;4954354;28;20855;-87
2021/01/24 06:48:02;;;;;;;5.50;2.43;;;-0.30;99.90;;;;;;4954569;28;20157;-87
2021/01/24 06:50:41;;;;;;;8.13;2.80;;;-0.30;99.90;;;;;;4966925;28;20130;-88
2021/01/24 06:53:21;;;;;;;6.93;2.63;;;-0.30;99.90;;;;;;4973108;28;20026;-89
2021/01/24 06:56:05;;;;;;;5.87;2.40;;;-0.40;99.90;;;;;;4961336;28;20060;-87
2021/01/24 06:58:50;;;;;;;8.03;2.33;;;-0.40;99.90;;;;;;4954157;28;20037;-87
2021/01/24 07:01:30;;;;;;;5.03;2.10;;;-0.40;99.90;;;;;;4972815;28;20038;-86
2021/01/24 07:04:18;;;;;;;4.97;2.17;;;-0.40;99.90;;;;;;4964655;28;20069;-88
2021/01/24 07:06:50;;;;;;;5.50;2.43;;;-0.30;99.90;;;;;;4951386;28;20042;-87
2021/01/24 07:09:42;;;;;;;8.07;2.83;;;-0.30;99.90;;;;;;4953392;28;20027;-87
2021/01/24 07:12:09;;;;;;;6.07;2.93;;;-0.20;99.90;;;;;;4965231;28;20027;-87
2021/01/24 07:14:34;;;;;;;6.87;2.93;;;-0.30;99.90;;;;;;4958160;28;20070;-87
2021/01/24 07:17:07;;;;;;;6.53;2.70;;;-0.20;99.90;;;;;;4956942;28;20031;-87
2021/01/24 07:19:36;;;;;;;5.40;3.00;;;-0.30;99.90;;;;;;4956169;28;20126;-86
2021/01/24 07:22:04;;;;;;;6.10;2.70;;;-0.30;99.90;;;;;;4948998;28;20117;-87
2021/01/24 07:24:30;;;;;;;5.43;2.73;;;-0.30;99.90;;;;;;4970530;28;20038;-87
2021/01/24 07:26:57;;;;;;;7.57;2.57;;;-0.30;99.90;;;;;;4962606;28;20354;-86
2021/01/24 07:29:25;;;;;;;5.07;2.20;;;-0.30;99.90;;;;;;4961104;28;20029;-87
2021/01/24 07:31:51;;;;;;;7.10;2.80;;;-0.30;99.90;;;;;;4971271;28;20459;-86
2021/01/24 07:34:24;;;;;;;4.77;2.20;;;-0.30;99.90;;;;;;4972458;28;20047;-87
2021/01/24 07:36:52;;;;;;;5.60;2.60;;;-0.40;99.90;;;;;;4971383;28;20700;-87
2021/01/24 07:39:20;;;;;;;7.13;2.90;;;-0.30;99.90;;;;;;4954751;28;20085;-87
2021/01/24 07:41:47;;;;;;;7.20;2.73;;;-0.30;99.90;;;;;;4957287;28;20520;-87
2021/01/24 07:44:14;;;;;;;4.53;2.30;;;-0.30;99.90;;;;;;4955919;28;20027;-86
2021/01/24 07:46:40;;;;;;;5.73;2.20;;;-0.30;99.90;;;;;;4955839;28;20508;-87
2021/01/24 07:49:07;;;;;;;7.40;2.53;;;-0.30;99.90;;;;;;4947191;28;20106;-87
2021/01/24 07:51:34;;;;;;;7.67;2.30;;;-0.30;99.90;;;;;;4955399;28;20534;-87
2021/01/24 07:54:00;;;;;;;8.07;2.50;;;-0.40;99.90;;;;;;4959282;28;20027;-87
2021/01/24 07:56:26;;;;;;;5.17;2.17;;;-0.30;99.90;;;;;;4959139;28;20027;-86
2021/01/24 07:58:52;;;;;;;6.07;2.30;;;-0.40;99.90;;;;;;4961506;28;20046;-86
2021/01/24 08:01:19;;;;;;;5.80;2.07;;;-0.30;99.90;;;;;;4954684;28;20031;-86
2021/01/24 08:03:44;;;;;;;6.60;2.30;;;-0.30;99.90;;;;;;4957976;28;20058;-86
2021/01/24 08:06:12;;;;;;;4.40;1.53;;;-0.20;99.90;;;;;;4947851;28;20066;-87
2021/01/24 08:08:43;;;;;;;6.73;2.27;;;-0.20;99.90;;;;;;4955078;28;20031;-87
2021/01/24 08:11:10;;;;;;;5.30;1.93;;;-0.10;99.90;;;;;;4955094;28;20392;-87
2021/01/24 08:13:38;;;;;;;4.20;1.43;;;0.00;99.90;;;;;;4962562;28;20116;-87
2021/01/24 08:16:14;;;;;;;3.67;1.90;;;0.10;99.90;;;;;;4933355;28;20078;-87
2021/01/24 08:18:43;;;;;;;8.23;1.60;;;0.10;99.90;;;;;;4953599;28;20027;-86
2021/01/24 08:21:09;;;;;;;4.83;1.73;;;0.10;99.90;;;;;;4957585;28;20023;-87
2021/01/24 08:23:35;;;;;;;4.17;1.47;;;0.00;99.90;;;;;;4965776;28;20511;-87
2021/01/24 08:26:03;;;;;;;4.13;1.70;;;0.00;99.90;;;;;;4956965;28;20036;-87
2021/01/24 08:28:30;;;;;;;4.63;1.80;;;0.10;99.90;;;;;;4961953;28;20053;-87
2021/01/24 08:31:00;;;;;;;14.40;5.30;;;0.00;99.90;;;;;;4958105;28;20035;-86
2021/01/24 08:33:28;;;;;;;21.17;8.00;;;0.00;99.90;;;;;;4955799;28;20031;-87
2021/01/24 08:36:17;;;;;;;11.27;3.13;;;0.10;99.90;;;;;;4956682;28;20101;-87
2021/01/24 08:38:45;;;;;;;4.93;2.20;;;0.20;99.90;;;;;;4956919;28;20046;-87
2021/01/24 08:41:11;;;;;;;4.20;1.77;;;0.30;99.90;;;;;;4961819;28;20065;-87
2021/01/24 08:43:38;;;;;;;4.57;1.87;;;0.30;99.90;;;;;;4955200;28;20453;-88
2021/01/24 08:46:27;;;;;;;5.27;2.17;;;0.30;99.90;;;;;;4963840;28;20019;-87
2021/01/24 08:49:11;;;;;;;4.77;2.30;;;0.40;99.90;;;;;;4958063;28;20077;-87
2021/01/24 08:51:56;;;;;;;6.63;2.63;;;0.50;99.90;;;;;;4955316;28;20031;-87
2021/01/24 08:54:34;;;;;;;5.47;2.07;;;0.60;99.90;;;;;;4960030;28;20072;-87
2021/01/24 08:57:18;;;;;;;6.43;2.13;;;0.70;99.90;;;;;;4956418;28;20481;-86
2021/01/24 08:59:48;;;;;;;5.07;1.67;;;0.90;99.90;;;;;;4951522;28;20045;-87
2021/01/24 09:02:30;;;;;;;5.30;1.73;;;0.90;99.90;;;;;;4969644;28;20031;-87
2021/01/24 09:04:56;;;;;;;4.85;1.48;;;0.90;99.90;;;;;;4971538;28;20018;-87
2021/01/24 09:07:41;;;;;;;6.60;1.60;;;0.90;99.90;;;;;;4955371;28;20408;-87
2021/01/24 09:10:20;;;;;;;3.10;1.23;;;0.80;99.90;;;;;;4960967;28;20376;-87
2021/01/24 09:12:50;;;;;;;4.07;1.57;;;0.80;99.90;;;;;;4953646;28;20030;-87
2021/01/24 09:15:19;;;;;;;4.43;1.70;;;0.70;99.90;;;;;;4955524;28;20023;-87
2021/01/24 09:17:48;;;;;;;4.53;2.10;;;0.70;99.90;;;;;;4953503;28;20026;-87
2021/01/24 09:20:19;;;;;;;5.57;1.60;;;0.80;99.90;;;;;;4955156;28;20023;-86
2021/01/24 09:22:45;;;;;;;4.80;1.93;;;0.80;99.90;;;;;;4966587;28;20022;-87
2021/01/24 09:25:13;;;;;;;4.73;1.60;;;0.90;99.90;;;;;;4957148;28;20022;-87
2021/01/24 09:27:38;;;;;;;3.53;2.00;;;0.90;99.90;;;;;;4955721;28;20089;-87
2021/01/24 09:30:08;;;;;;;3.93;1.70;;;1.00;99.90;;;;;;4948030;28;20058;-89
2021/01/24 09:32:35;;;;;;;5.73;2.00;;;1.00;99.90;;;;;;4948890;28;20030;-87
2021/01/24 09:35:04;;;;;;;5.60;2.00;;;1.00;99.90;;;;;;4958170;28;20070;-87
2021/01/24 09:37:30;;;;;;;4.07;1.67;;;1.00;99.90;;;;;;4982429;28;20030;-88
2021/01/24 09:39:55;;;;;;;5.00;2.27;;;0.90;99.90;;;;;;4969239;28;20033;-87
2021/01/24 09:42:21;;;;;;;4.60;2.20;;;0.90;99.90;;;;;;4967812;28;20484;-86
2021/01/24 09:44:49;;;;;;;5.27;2.10;;;0.90;99.90;;;;;;4954593;28;20061;-86
2021/01/24 09:47:14;;;;;;;5.63;2.17;;;0.90;99.90;;;;;;4950745;28;20126;-86
2021/01/24 09:49:41;;;;;;;5.57;2.20;;;0.80;99.90;;;;;;4953304;28;20082;-86
2021/01/24 09:52:07;;;;;;;6.10;2.40;;;0.90;99.90;;;;;;4939305;28;20085;-88
2021/01/24 09:54:32;;;;;;;5.03;2.20;;;0.90;99.90;;;;;;4954317;28;20484;-87
2021/01/24 09:56:58;;;;;;;5.23;1.93;;;1.00;99.90;;;;;;4954349;28;20054;-87
2021/01/24 09:59:25;;;;;;;4.93;1.77;;;1.00;99.90;;;;;;4954783;28;20035;-88
2021/01/24 10:01:51;;;;;;;5.87;2.23;;;0.90;99.90;;;;;;4963621;28;20558;-85
2021/01/24 10:04:17;;;;;;;5.97;1.90;;;0.90;99.90;;;;;;4958223;28;20034;-85
2021/01/24 10:06:42;;;;;;;6.63;2.20;;;1.00;99.90;;;;;;4954239;28;20114;-85
2021/01/24 10:09:09;;;;;;;6.00;2.20;;;1.10;99.90;;;;;;4961187;28;20110;-85
2021/01/24 10:11:35;;;;;;;6.17;2.20;;;1.10;99.90;;;;;;4971499;28;20014;-85
2021/01/24 10:14:01;;;;;;;4.83;2.13;;;1.20;99.90;;;;;;4954810;28;20023;-85
2021/01/24 10:16:29;;;;;;;5.67;1.90;;;1.20;99.90;;;;;;4959549;28;20049;-85
2021/01/24 10:18:56;;;;;;;5.13;2.07;;;1.30;99.90;;;;;;4969439;28;20027;-85
2021/01/24 10:21:21;;;;;;;6.17;2.43;;;1.30;99.90;;;;;;4958348;28;20046;-85
2021/01/24 10:23:47;;;;;;;7.53;1.83;;;1.50;99.90;;;;;;4952775;28;20035;-86
2021/01/24 10:26:14;;;;;;;4.97;1.70;;;1.50;99.90;;;;;;4970624;28;20101;-85
2021/01/24 10:28:40;;;;;;;5.17;2.07;;;1.50;99.90;;;;;;4957448;28;20015;-85
2021/01/24 10:31:05;;;;;;;4.80;1.97;;;1.60;99.90;;;;;;4957683;28;20031;-86
2021/01/24 10:33:31;;;;;;;4.80;1.73;;;1.50;99.90;;;;;;4971386;28;20023;-85
2021/01/24 10:35:57;;;;;;;6.90;2.57;;;1.70;99.90;;;;;;4972831;28;20063;-86
2021/01/24 10:38:23;;;;;;;3.63;1.40;;;1.70;99.90;;;;;;4970744;28;20057;-86
2021/01/24 10:40:49;;;;;;;3.83;1.77;;;1.70;99.90;;;;;;4973478;28;20027;-86
2021/01/24 10:43:15;;;;;;;4.33;1.57;;;1.70;99.90;;;;;;4956832;28;20031;-85
2021/01/24 10:45:41;;;;;;;4.47;1.80;;;1.70;99.90;;;;;;4956968;28;20496;-86
2021/01/24 10:48:07;;;;;;;6.80;2.00;;;1.60;99.90;;;;;;4976672;28;20073;-86
2021/01/24 10:50:35;;;;;;;4.57;1.47;;;1.60;99.90;;;;;;4955991;28;20043;-87
2021/01/24 10:53:03;;;;;;;5.00;1.40;;;1.70;99.90;;;;;;4964189;28;20030;-88
2021/01/24 10:55:29;;;;;;;4.87;1.40;;;1.80;99.90;;;;;;4976967;28;20037;-86
2021/01/24 10:57:55;;;;;;;4.83;1.20;;;1.80;99.90;;;;;;4975290;28;20106;-86
2021/01/24 11:00:21;;;;;;;3.83;1.27;;;1.80;99.90;;;;;;4971569;28;20031;-87
2021/01/24 11:02:47;;;;;;;7.63;2.43;;;1.80;99.90;;;;;;4963160;28;20105;-86
2021/01/24 11:05:12;;;;;;;1.67;0.77;;;1.90;99.90;;;;;;4967122;28;20057;-86
2021/01/24 11:07:38;;;;;;;2.97;1.20;;;2.00;99.90;;;;;;4973603;28;20023;-86
2021/01/24 11:10:06;;;;;;;2.97;1.13;;;2.00;99.90;;;;;;4963075;28;20618;-86
2021/01/24 11:12:31;;;;;;;2.83;0.70;;;2.10;99.90;;;;;;4968042;28;20098;-86
2021/01/24 11:14:57;;;;;;;2.73;1.00;;;2.10;99.90;;;;;;4973337;28;20065;-86
2021/01/24 11:17:23;;;;;;;2.10;0.90;;;2.10;99.90;;;;;;4968495;28;20046;-87
2021/01/24 11:19:51;;;;;;;3.53;0.90;;;2.10;99.90;;;;;;4970222;28;20027;-87
2021/01/24 11:22:18;;;;;;;3.20;1.10;;;2.10;99.90;;;;;;4969064;28;20380;-86
2021/01/24 11:24:45;;;;;;;2.93;1.10;;;2.20;99.90;;;;;;4970983;28;20023;-86
2021/01/24 11:27:11;;;;;;;2.43;1.07;;;2.20;99.90;;;;;;4967540;28;20153;-87
2021/01/24 11:29:38;;;;;;;3.57;1.00;;;2.20;99.90;;;;;;4954029;28;20113;-86
2021/01/24 11:32:06;;;;;;;2.37;0.97;;;2.30;99.90;;;;;;4961078;28;20025;-87
2021/01/24 11:34:32;;;;;;;2.40;0.80;;;2.30;99.90;;;;;;4960799;28;20396;-87
2021/01/24 11:36:59;;;;;;;3.07;0.80;;;2.40;99.90;;;;;;4956672;28;20507;-87
2021/01/24 11:39:25;;;;;;;5.23;0.90;;;2.40;99.90;;;;;;4970696;28;20094;-87
2021/01/24 11:41:51;;;;;;;3.60;1.13;;;2.20;99.90;;;;;;4954260;28;20038;-88
2021/01/24 11:44:17;;;;;;;2.60;0.80;;;2.30;99.90;;;;;;4960260;28;20031;-87
2021/01/24 11:46:43;;;;;;;4.33;0.90;;;2.20;99.90;;;;;;4956316;28;20129;-87
2021/01/24 11:49:08;;;;;;;1.90;0.73;;;2.20;99.90;;;;;;4957109;28;20516;-87
2021/01/24 11:51:34;;;;;;;4.13;1.00;;;2.20;99.90;;;;;;4957940;28;20038;-86
2021/01/24 11:54:00;;;;;;;4.13;1.10;;;2.30;99.90;;;;;;4963640;28;20104;-87
2021/01/24 11:56:26;;;;;;;2.27;0.90;;;2.30;99.90;;;;;;4957982;28;20067;-86
2021/01/24 11:58:51;;;;;;;2.80;0.83;;;2.30;99.90;;;;;;4977742;28;20026;-87
2021/01/24 12:01:17;;;;;;;3.47;0.90;;;2.30;99.90;;;;;;4984908;28;20488;-86
2021/01/24 12:03:42;;;;;;;2.40;0.90;;;2.20;99.90;;;;;;4959878;28;20090;-87
2021/01/24 12:06:08;;;;;;;2.37;0.87;;;2.20;99.90;;;;;;4962480;28;20106;-86
2021/01/24 12:08:34;;;;;;;4.90;1.07;;;2.20;99.90;;;;;;4964019;28;20062;-86
2021/01/24 12:10:59;;;;;;;3.00;1.00;;;2.10;99.90;;;;;;4959937;28;20648;-87
2021/01/24 12:13:25;;;;;;;1.50;0.70;;;2.20;99.90;;;;;;4977861;28;20555;-86
2021/01/24 12:15:51;;;;;;;2.73;1.00;;;2.20;99.90;;;;;;4961424;28;20037;-86
2021/01/24 12:18:16;;;;;;;2.57;0.90;;;2.10;99.90;;;;;;4979770;28;20042;-87
2021/01/24 12:20:42;;;;;;;4.67;1.47;;;2.20;99.90;;;;;;4975986;28;20026;-86
2021/01/24 12:23:08;;;;;;;2.83;1.20;;;2.30;99.90;;;;;;4956672;28;20027;-86
2021/01/24 12:25:33;;;;;;;3.13;1.77;;;2.30;99.90;;;;;;4962718;28;20110;-86
2021/01/24 12:27:59;;;;;;;2.00;0.90;;;2.30;99.90;;;;;;4961716;28;20023;-86
2021/01/24 12:30:26;;;;;;;6.20;1.80;;;2.20;99.90;;;;;;4976306;28;20050;-86
2021/01/24 12:32:52;;;;;;;3.20;1.37;;;2.30;99.90;;;;;;4966403;28;20023;-86
2021/01/24 12:35:18;;;;;;;3.87;1.57;;;2.20;99.90;;;;;;4965504;28;20034;-86
2021/01/24 12:37:44;;;;;;;3.70;1.40;;;2.20;99.90;;;;;;4960426;28;20492;-86
2021/01/24 12:40:10;;;;;;;2.60;1.10;;;2.20;99.90;;;;;;4969073;28;20035;-86
2021/01/24 12:42:36;;;;;;;2.20;1.07;;;2.20;99.90;;;;;;4958422;28;20031;-86
2021/01/24 12:45:03;;;;;;;5.10;2.13;;;2.20;99.90;;;;;;4959108;28;20030;-86
2021/01/24 12:47:28;;;;;;;3.70;1.70;;;2.20;99.90;;;;;;4960634;28;20089;-85
2021/01/24 12:49:54;;;;;;;4.47;0.80;;;2.20;99.90;;;;;;4965128;28;20023;-86
2021/01/24 12:52:20;;;;;;;2.93;1.10;;;2.10;99.90;;;;;;4955805;28;20031;-86
2021/01/24 12:54:45;;;;;;;2.97;1.20;;;2.10;99.90;;;;;;4962279;28;20039;-85
2021/01/24 12:57:11;;;;;;;3.90;1.20;;;2.20;99.90;;;;;;4958047;28;20039;-86
2021/01/24 12:59:37;;;;;;;2.63;1.07;;;2.20;99.90;;;;;;4956977;28;20225;-86
2021/01/24 13:02:06;;;;;;;1.90;0.70;;;2.20;99.90;;;;;;4959549;28;20035;-86